createdAt,value
2023-07-14T00:00:37.061Z,2.25
2023-07-14T00:03:04.837Z,2.28
2023-07-14T00:05:34.402Z,2.95
2023-07-14T00:08:02.534Z,2.65
2023-07-14T00:10:35.842Z,2.90
2023-07-14T00:13:05.852Z,2.08
2023-07-14T00:15:35.230Z,2.53
2023-07-14T00:18:21.094Z,2.85
2023-07-14T00:20:48.026Z,2.28
2023-07-14T00:23:15.948Z,2.20
2023-07-14T00:25:43.074Z,2.60
2023-07-14T00:28:16.503Z,4.07
2023-07-14T00:30:43.038Z,2.45
2023-07-14T00:33:14.816Z,2.38
2023-07-14T00:35:41.512Z,2.42
2023-07-14T00:38:08.315Z,2.28
2023-07-14T00:40:40.479Z,3.30
2023-07-14T00:43:14.609Z,2.83
2023-07-14T00:45:41.409Z,2.88
2023-07-14T00:48:09.898Z,2.20
2023-07-14T00:51:00.451Z,2.40
2023-07-14T00:53:33.223Z,2.75
2023-07-14T00:56:26.112Z,3.05
2023-07-14T00:58:52.641Z,2.47
2023-07-14T01:01:26.591Z,2.80
2023-07-14T01:03:57.471Z,3.17
2023-07-14T01:06:39.639Z,2.30
2023-07-14T01:09:10.344Z,2.63
2023-07-14T01:11:44.568Z,2.63
2023-07-14T01:14:17.444Z,2.58
2023-07-14T01:16:44.235Z,2.25
2023-07-14T01:19:21.022Z,2.60
2023-07-14T01:21:49.964Z,2.10
2023-07-14T01:24:24.530Z,3.22
2023-07-14T01:26:54.713Z,2.20
2023-07-14T01:29:21.902Z,2.85
2023-07-14T01:31:48.928Z,2.40
2023-07-14T01:34:16.307Z,2.38
2023-07-14T01:36:44.332Z,3.10
2023-07-14T01:39:12.243Z,2.60
2023-07-14T01:41:38.959Z,3.22
2023-07-14T01:44:06.885Z,2.72
2023-07-14T01:46:33.435Z,3.05
2023-07-14T01:49:00.838Z,3.22
2023-07-14T01:51:31.493Z,2.33
2023-07-14T01:54:10.944Z,2.63
2023-07-14T01:56:39.096Z,2.65
2023-07-14T01:59:19.434Z,2.47
2023-07-14T02:01:46.657Z,2.60
2023-07-14T02:04:24.575Z,2.95
2023-07-14T02:06:51.120Z,2.42
2023-07-14T02:09:20.805Z,2.42
2023-07-14T02:11:50.745Z,2.80
2023-07-14T02:14:20.433Z,2.65
2023-07-14T02:16:48.828Z,2.47
2023-07-14T02:19:22.367Z,3.08
2023-07-14T02:21:49.581Z,2.80
2023-07-14T02:24:20.758Z,3.00
2023-07-14T02:26:51.010Z,2.83
2023-07-14T02:29:17.529Z,2.58
2023-07-14T02:31:48.397Z,3.00
2023-07-14T02:34:16.785Z,2.78
2023-07-14T02:36:57.033Z,3.20
2023-07-14T02:39:23.879Z,3.03
2023-07-14T02:41:54.530Z,2.97
2023-07-14T02:44:23.349Z,3.78
2023-07-14T02:46:54.145Z,3.03
2023-07-14T02:49:20.862Z,2.72
2023-07-14T02:51:47.443Z,3.00
2023-07-14T02:54:14.153Z,3.40
2023-07-14T02:56:40.690Z,2.88
2023-07-14T02:59:10.664Z,2.47
2023-07-14T03:01:37.385Z,2.97
2023-07-14T03:04:04.065Z,3.15
2023-07-14T03:06:30.985Z,2.92
2023-07-14T03:08:57.478Z,3.20
2023-07-14T03:11:26.423Z,2.75
2023-07-14T03:13:53.453Z,3.42
2023-07-14T03:16:20.594Z,3.25
2023-07-14T03:18:47.294Z,4.10
2023-07-14T03:21:14.209Z,3.40
2023-07-14T03:23:41.020Z,3.63
2023-07-14T03:26:09.105Z,3.17
2023-07-14T03:28:36.462Z,3.10
2023-07-14T03:31:03.385Z,3.08
2023-07-14T03:33:35.281Z,4.35
2023-07-14T03:36:03.740Z,4.00
2023-07-14T03:38:30.262Z,3.08
2023-07-14T03:40:56.777Z,3.20
2023-07-14T03:43:23.564Z,2.90
2023-07-14T03:45:50.124Z,3.33
2023-07-14T03:48:16.767Z,3.58
2023-07-14T03:50:44.712Z,3.25
2023-07-14T03:53:11.229Z,3.53
2023-07-14T03:55:37.757Z,4.00
2023-07-14T03:58:06.381Z,3.15
2023-07-14T04:00:33.583Z,3.25
2023-07-14T04:03:00.720Z,3.85
2023-07-14T04:05:27.823Z,4.03
2023-07-14T04:07:54.419Z,3.88
2023-07-14T04:10:21.090Z,3.92
2023-07-14T04:12:48.853Z,4.30
2023-07-14T04:15:15.645Z,4.25
2023-07-14T04:17:42.270Z,3.88
2023-07-14T04:20:09.366Z,4.25
2023-07-14T04:22:35.931Z,3.78
2023-07-14T04:25:03.962Z,3.47
2023-07-14T04:27:30.922Z,3.60
2023-07-14T04:29:57.518Z,3.22
2023-07-14T04:32:24.039Z,3.78
2023-07-14T04:34:50.618Z,3.30
2023-07-14T04:37:17.650Z,3.75
2023-07-14T04:39:46.077Z,3.83
2023-07-14T04:42:12.983Z,4.88
2023-07-14T04:44:40.237Z,3.90
2023-07-14T04:47:07.804Z,3.92
2023-07-14T04:49:34.384Z,4.38
2023-07-14T04:52:02.210Z,5.88
2023-07-14T04:54:28.975Z,3.40
2023-07-14T04:56:55.909Z,3.33
2023-07-14T04:59:22.524Z,4.38
2023-07-14T05:01:49.087Z,3.67
2023-07-14T05:04:15.616Z,3.63
2023-07-14T05:06:42.190Z,3.42
2023-07-14T05:09:09.173Z,3.63
2023-07-14T05:11:40.077Z,3.13
2023-07-14T05:14:06.756Z,3.03
2023-07-14T05:16:33.427Z,3.83
2023-07-14T05:19:00.009Z,3.65
2023-07-14T05:21:26.711Z,4.30
2023-07-14T05:23:53.358Z,3.50
2023-07-14T05:26:20.035Z,3.05
2023-07-14T05:28:46.709Z,3.40
2023-07-14T05:31:13.867Z,3.75
2023-07-14T05:33:40.678Z,3.03
2023-07-14T05:36:07.333Z,3.00
2023-07-14T05:38:34.090Z,4.22
2023-07-14T05:41:00.765Z,3.22
2023-07-14T05:43:29.016Z,3.83
2023-07-14T05:45:55.844Z,3.75
2023-07-14T05:48:22.612Z,2.80
2023-07-14T05:50:49.400Z,3.28
2023-07-14T05:53:18.720Z,4.22
2023-07-14T05:55:45.996Z,2.72
2023-07-14T05:58:12.546Z,3.22
2023-07-14T06:00:40.500Z,3.03
2023-07-14T06:03:19.739Z,3.30
2023-07-14T06:05:47.866Z,3.30
2023-07-14T06:08:14.805Z,2.80
2023-07-14T06:10:41.372Z,3.28
2023-07-14T06:13:08.087Z,3.42
2023-07-14T06:15:34.737Z,3.67
2023-07-14T06:18:01.361Z,3.10
2023-07-14T06:20:30.050Z,3.20
2023-07-14T06:22:57.529Z,3.90
2023-07-14T06:25:24.103Z,3.30
2023-07-14T06:27:52.027Z,4.47
2023-07-14T06:30:18.705Z,3.63
2023-07-14T06:32:45.388Z,3.83
2023-07-14T06:35:12.193Z,3.30
2023-07-14T06:37:39.055Z,2.75
2023-07-14T06:40:08.970Z,3.83
2023-07-14T06:42:35.881Z,3.45
2023-07-14T06:45:03.434Z,3.88
2023-07-14T06:47:30.031Z,3.53
2023-07-14T06:49:57.440Z,3.65
2023-07-14T06:52:24.009Z,4.00
2023-07-14T06:54:50.583Z,4.00
2023-07-14T06:57:17.144Z,3.97
2023-07-14T06:59:44.105Z,4.10
2023-07-14T07:02:13.486Z,3.90
2023-07-14T07:04:40.069Z,3.70
2023-07-14T07:07:06.951Z,4.20
2023-07-14T07:09:33.782Z,3.75
2023-07-14T07:12:00.308Z,3.47
2023-07-14T07:14:26.889Z,3.95
2023-07-14T07:16:54.278Z,4.95
2023-07-14T07:19:21.033Z,3.92
2023-07-14T07:21:47.537Z,3.97
2023-07-14T07:24:15.861Z,3.75
2023-07-14T07:26:45.690Z,4.82
2023-07-14T07:29:12.253Z,5.10
2023-07-14T07:31:38.865Z,5.75
2023-07-14T07:34:10.331Z,4.28
2023-07-14T07:36:36.860Z,4.95
2023-07-14T07:39:03.581Z,5.13
2023-07-14T07:41:30.161Z,5.40
2023-07-14T07:43:56.763Z,4.70
2023-07-14T07:46:23.659Z,4.60
2023-07-14T07:48:51.131Z,4.82
2023-07-14T07:51:17.740Z,4.95
2023-07-14T07:53:44.374Z,5.28
2023-07-14T07:56:12.324Z,4.60
2023-07-14T07:58:39.720Z,5.07
2023-07-14T08:01:07.472Z,5.28
2023-07-14T08:03:35.350Z,4.53
2023-07-14T08:06:04.440Z,5.05
2023-07-14T08:08:31.243Z,5.20
2023-07-14T08:10:58.093Z,4.82
2023-07-14T08:13:26.664Z,4.60
2023-07-14T08:15:54.725Z,5.50
2023-07-14T08:18:22.250Z,5.13
2023-07-14T08:20:50.526Z,5.35
2023-07-14T08:23:21.303Z,5.00
2023-07-14T08:26:00.693Z,5.57
2023-07-14T08:28:28.026Z,5.30
2023-07-14T08:30:57.010Z,5.15
2023-07-14T08:33:24.868Z,5.32
2023-07-14T08:35:52.676Z,4.88
2023-07-14T08:38:20.956Z,7.30
2023-07-14T08:40:55.645Z,5.45
2023-07-14T08:43:50.497Z,5.28
2023-07-14T08:46:47.227Z,5.15
2023-07-14T08:49:19.386Z,5.57
2023-07-14T08:51:46.668Z,5.13
2023-07-14T08:54:21.637Z,5.47
2023-07-14T08:56:50.071Z,5.68
2023-07-14T08:59:28.160Z,6.38
2023-07-14T09:01:55.788Z,4.85
2023-07-14T09:04:25.764Z,5.85
2023-07-14T09:06:53.622Z,6.65
2023-07-14T09:09:27.320Z,5.78
2023-07-14T09:12:16.458Z,5.85
2023-07-14T09:14:52.380Z,5.93
2023-07-14T09:17:30.677Z,5.55
2023-07-14T09:20:26.399Z,5.32
2023-07-14T09:23:04.506Z,5.47
2023-07-14T09:28:24.388Z,4.93
2023-07-14T09:30:54.476Z,5.15
2023-07-14T09:33:22.244Z,5.88
2023-07-14T09:35:49.191Z,6.80
2023-07-14T09:38:40.215Z,5.95
2023-07-14T09:41:06.946Z,5.43
2023-07-14T09:43:33.458Z,5.10
2023-07-14T09:46:01.962Z,5.88
2023-07-14T09:48:34.220Z,4.85
2023-07-14T09:51:17.955Z,5.93
2023-07-14T09:54:01.859Z,5.70
2023-07-14T09:56:35.751Z,4.45
2023-07-14T09:59:04.850Z,5.00
2023-07-14T10:01:32.580Z,4.88
2023-07-14T10:04:17.273Z,5.07
2023-07-14T10:06:43.955Z,4.95
2023-07-14T10:09:12.956Z,5.13
2023-07-14T10:11:50.823Z,5.47
2023-07-14T10:14:28.014Z,4.68
2023-07-14T10:16:59.267Z,4.90
2023-07-14T10:19:51.854Z,4.82
2023-07-14T10:22:23.046Z,4.45
2023-07-14T10:24:57.662Z,5.25
2023-07-14T10:27:33.904Z,4.97
2023-07-14T10:30:10.400Z,4.50
2023-07-14T10:32:40.016Z,5.10
2023-07-14T10:35:14.849Z,4.13
2023-07-14T10:37:53.362Z,3.90
2023-07-14T10:40:23.327Z,4.20
2023-07-14T10:43:04.368Z,4.25
2023-07-14T10:45:35.483Z,4.13
2023-07-14T10:48:18.023Z,4.00
2023-07-14T10:50:55.900Z,3.60
2023-07-14T10:56:00.035Z,3.65
2023-07-14T10:58:45.087Z,4.15
2023-07-14T11:01:20.879Z,3.78
2023-07-14T11:03:58.680Z,3.03
2023-07-14T11:06:29.278Z,3.90
2023-07-14T11:08:57.666Z,3.40
2023-07-14T11:11:38.671Z,3.72
2023-07-14T11:14:14.979Z,3.60
2023-07-14T11:17:06.437Z,4.53
2023-07-14T11:19:46.901Z,3.53
2023-07-14T11:22:43.277Z,3.72
2023-07-14T11:25:33.168Z,3.80
2023-07-14T11:28:18.743Z,4.20
2023-07-14T11:30:48.613Z,4.75
2023-07-14T11:33:30.688Z,3.33
2023-07-14T11:36:05.884Z,3.40
2023-07-14T11:38:36.798Z,3.13
2023-07-14T11:41:03.758Z,2.90
2023-07-14T11:43:31.616Z,2.90
2023-07-14T11:46:07.305Z,2.97
2023-07-14T11:48:44.713Z,2.80
2023-07-14T11:51:15.068Z,2.80
2023-07-14T11:54:06.206Z,2.95
2023-07-14T11:56:42.014Z,2.45
2023-07-14T11:59:22.311Z,2.72
2023-07-14T12:01:51.076Z,2.67
2023-07-14T12:04:29.297Z,2.75
2023-07-14T12:07:04.846Z,2.80
2023-07-14T12:09:34.739Z,2.80
2023-07-14T12:12:02.702Z,3.10
2023-07-14T12:14:46.924Z,2.83
2023-07-14T12:17:38.056Z,3.00
2023-07-14T12:20:26.369Z,3.03
2023-07-14T12:23:18.660Z,3.13
2023-07-14T12:25:58.680Z,3.03
2023-07-14T12:28:31.862Z,3.15
2023-07-14T12:31:03.696Z,3.30
2023-07-14T12:33:30.542Z,3.30
2023-07-14T12:35:57.036Z,4.50
2023-07-14T12:38:24.562Z,4.18
2023-07-14T12:40:53.593Z,3.90
2023-07-14T12:43:42.355Z,3.90
2023-07-14T12:46:19.268Z,3.45
2023-07-14T12:48:46.029Z,3.90
2023-07-14T12:51:20.062Z,3.15
2023-07-14T12:54:01.939Z,4.28
2023-07-14T12:56:31.214Z,3.95
2023-07-14T12:59:00.038Z,3.60
2023-07-14T13:01:26.783Z,3.83
2023-07-14T13:03:53.943Z,3.40
2023-07-14T13:06:23.741Z,3.15
2023-07-14T13:08:52.066Z,3.67
2023-07-14T13:11:22.855Z,3.30
2023-07-14T13:13:53.651Z,3.33
2023-07-14T13:16:20.398Z,3.47
2023-07-14T13:18:59.437Z,3.40
2023-07-14T13:21:48.528Z,2.80
2023-07-14T13:24:20.607Z,2.70
2023-07-14T13:26:58.522Z,2.78
2023-07-14T13:29:41.169Z,2.92
2023-07-14T13:32:15.596Z,3.63
2023-07-14T13:34:43.267Z,3.20
2023-07-14T13:37:12.472Z,2.55
2023-07-14T13:39:45.260Z,2.92
2023-07-14T13:42:30.486Z,2.92
2023-07-14T13:45:00.021Z,2.47
2023-07-14T13:47:31.904Z,2.75
2023-07-14T13:49:58.618Z,3.20
2023-07-14T13:52:33.252Z,3.17
2023-07-14T13:55:13.660Z,3.10
2023-07-14T13:57:44.932Z,2.90
2023-07-14T14:00:24.469Z,2.80
2023-07-14T14:03:00.885Z,3.40
2023-07-14T14:05:30.075Z,2.95
2023-07-14T14:07:56.745Z,3.00
2023-07-14T14:10:25.202Z,3.33
2023-07-14T14:12:52.737Z,3.83
2023-07-14T14:15:26.854Z,3.22
2023-07-14T14:17:59.447Z,3.63
2023-07-14T14:20:28.742Z,3.42
2023-07-14T14:22:55.561Z,3.28
2023-07-14T14:25:27.719Z,3.05
2023-07-14T14:27:55.165Z,3.28
2023-07-14T14:30:25.369Z,2.95
2023-07-14T14:32:55.651Z,3.10
2023-07-14T14:35:26.096Z,3.60
2023-07-14T14:37:53.656Z,3.40
2023-07-14T14:40:20.153Z,3.30
2023-07-14T14:42:46.832Z,3.50
2023-07-14T14:45:23.679Z,3.28
2023-07-14T14:47:51.097Z,3.05
2023-07-14T14:50:19.448Z,2.83
2023-07-14T14:52:46.002Z,3.00
2023-07-14T14:55:17.457Z,2.72
2023-07-14T14:57:50.476Z,3.60
2023-07-14T15:00:23.272Z,2.70
2023-07-14T15:02:50.618Z,2.85
2023-07-14T15:05:21.566Z,2.75
2023-07-14T15:10:15.734Z,3.67
2023-07-14T15:12:44.977Z,3.00
2023-07-14T15:15:21.447Z,2.88
2023-07-14T15:17:49.182Z,3.13
2023-07-14T15:20:16.291Z,3.20
2023-07-14T15:22:44.352Z,2.97
2023-07-14T15:25:16.863Z,3.03
2023-07-14T15:27:45.046Z,3.03
2023-07-14T15:30:27.175Z,2.83
2023-07-14T15:32:55.819Z,3.05
2023-07-14T15:35:29.663Z,2.90
2023-07-14T15:37:58.195Z,2.42
2023-07-14T15:40:28.014Z,2.88
2023-07-14T15:42:54.788Z,2.67
2023-07-14T15:45:25.837Z,2.38
2023-07-14T15:47:53.407Z,2.90
2023-07-14T15:50:22.717Z,2.63
2023-07-14T15:52:51.550Z,2.60
2023-07-14T15:55:21.502Z,2.63
2023-07-14T15:57:48.051Z,2.95
2023-07-14T16:00:17.835Z,2.70
2023-07-14T16:02:46.907Z,2.30
2023-07-14T16:05:15.673Z,2.33
2023-07-14T16:07:42.557Z,2.65
2023-07-14T16:10:14.553Z,2.20
2023-07-14T16:12:41.040Z,2.60
2023-07-14T16:15:28.508Z,2.47
2023-07-14T16:17:55.970Z,2.70
2023-07-14T16:20:26.313Z,3.15
2023-07-14T16:22:57.605Z,4.75
2023-07-14T16:25:24.965Z,3.15
2023-07-14T16:27:51.563Z,3.55
2023-07-14T16:30:24.045Z,3.58
2023-07-14T16:32:51.869Z,5.53
2023-07-14T16:35:21.602Z,3.15
2023-07-14T16:37:51.969Z,8.50
2023-07-14T16:40:27.038Z,3.85
2023-07-14T16:42:57.243Z,6.30
2023-07-14T16:45:26.288Z,3.60
2023-07-14T16:47:54.245Z,4.50
2023-07-14T16:50:22.795Z,4.30
2023-07-14T16:52:50.311Z,3.63
2023-07-14T16:55:22.979Z,2.95
2023-07-14T16:57:51.975Z,3.92
2023-07-14T17:00:27.753Z,3.08
2023-07-14T17:02:59.832Z,3.42
2023-07-14T17:05:33.848Z,2.42
2023-07-14T17:08:00.665Z,2.70
2023-07-14T17:10:31.499Z,3.33
2023-07-14T17:13:05.971Z,7.10
2023-07-14T17:15:44.104Z,3.30
2023-07-14T17:18:16.971Z,2.63
2023-07-14T17:20:45.912Z,2.65
2023-07-14T17:23:16.971Z,2.60
2023-07-14T17:25:43.498Z,2.90
2023-07-14T17:28:16.009Z,2.40
2023-07-14T17:30:42.664Z,2.60
2023-07-14T17:33:09.212Z,2.60
2023-07-14T17:35:35.782Z,3.03
2023-07-14T17:38:02.305Z,2.60
2023-07-14T17:40:31.572Z,3.92
2023-07-14T17:43:00.632Z,2.90
2023-07-14T17:45:28.121Z,3.17
2023-07-14T17:47:54.825Z,3.05
2023-07-14T17:50:24.486Z,2.58
2023-07-14T17:52:54.363Z,2.75
2023-07-14T17:55:25.737Z,2.85
2023-07-14T18:00:24.088Z,2.90
2023-07-14T18:02:53.182Z,3.20
2023-07-14T18:05:27.949Z,2.63
2023-07-14T18:07:58.201Z,2.60
2023-07-14T18:10:28.556Z,4.43
2023-07-14T18:12:55.684Z,3.42
2023-07-14T18:15:32.713Z,7.25
2023-07-14T18:18:05.325Z,4.00
2023-07-14T18:20:33.599Z,2.85
2023-07-14T18:23:00.841Z,3.15
2023-07-14T18:25:30.691Z,2.63
2023-07-14T18:28:00.871Z,2.72
2023-07-14T18:30:29.569Z,2.72
2023-07-14T18:32:57.716Z,2.22
2023-07-14T18:35:28.974Z,2.58
2023-07-14T18:37:57.237Z,2.50
2023-07-14T18:40:37.608Z,3.00
2023-07-14T18:43:04.274Z,2.28
2023-07-14T18:45:35.002Z,2.80
2023-07-14T18:48:14.171Z,2.88
2023-07-14T18:50:42.769Z,2.72
2023-07-14T18:53:14.997Z,3.38
2023-07-14T18:55:42.622Z,3.60
2023-07-14T18:58:18.015Z,3.30
2023-07-14T19:00:46.937Z,3.10
2023-07-14T19:03:25.589Z,3.30
2023-07-14T19:05:55.255Z,3.13
2023-07-14T19:08:22.149Z,3.00
2023-07-14T19:10:57.164Z,3.60
2023-07-14T19:13:25.841Z,3.33
2023-07-14T19:15:53.089Z,3.25
2023-07-14T19:18:24.557Z,3.15
2023-07-14T19:21:21.477Z,3.42
2023-07-14T19:23:51.901Z,3.80
2023-07-14T19:26:21.068Z,2.80
2023-07-14T19:28:47.793Z,3.00
2023-07-14T19:31:38.315Z,3.00
2023-07-14T19:34:22.282Z,3.30
2023-07-14T19:36:49.016Z,2.60
2023-07-14T19:39:16.168Z,3.08
2023-07-14T19:41:53.785Z,3.03
2023-07-14T19:44:21.399Z,3.30
2023-07-14T19:46:48.751Z,3.03
2023-07-14T19:49:16.005Z,3.22
2023-07-14T19:51:45.695Z,3.35
2023-07-14T19:54:18.524Z,7.95
2023-07-14T19:56:45.534Z,3.72
2023-07-14T19:59:19.985Z,3.78
2023-07-14T20:01:47.846Z,3.78
2023-07-14T20:04:14.538Z,4.68
2023-07-14T20:06:41.627Z,3.33
2023-07-14T20:09:09.903Z,3.47
2023-07-14T20:11:37.730Z,3.40
2023-07-14T20:14:25.533Z,3.40
2023-07-14T20:16:52.052Z,3.83
2023-07-14T20:19:18.554Z,5.82
2023-07-14T20:21:45.064Z,3.40
2023-07-14T20:24:20.200Z,3.08
2023-07-14T20:26:46.755Z,3.03
2023-07-14T20:29:13.262Z,3.38
2023-07-14T20:31:41.863Z,3.50
2023-07-14T20:34:17.256Z,3.58
2023-07-14T20:36:45.210Z,3.83
2023-07-14T20:39:12.843Z,3.80
2023-07-14T20:41:39.799Z,3.85
2023-07-14T20:44:06.810Z,3.65
2023-07-14T20:46:36.611Z,3.85
2023-07-14T20:49:17.106Z,3.28
2023-07-14T20:51:44.610Z,4.03
2023-07-14T20:54:13.974Z,3.42
2023-07-14T20:56:43.040Z,3.60
2023-07-14T20:59:09.613Z,3.60
2023-07-14T21:01:36.713Z,4.13
2023-07-14T21:04:22.470Z,3.97
2023-07-14T21:06:52.446Z,4.63
2023-07-14T21:09:22.354Z,3.90
2023-07-14T21:11:53.073Z,3.85
2023-07-14T21:17:25.769Z,4.10
2023-07-14T21:19:56.508Z,4.10
2023-07-14T21:22:23.771Z,4.13
2023-07-14T21:24:50.392Z,4.03
2023-07-14T21:27:30.034Z,4.22
2023-07-14T21:30:02.401Z,4.43
2023-07-14T21:32:34.540Z,4.57
2023-07-14T21:35:03.664Z,5.07
2023-07-14T21:37:30.282Z,4.72
2023-07-14T21:39:57.301Z,4.25
2023-07-14T21:42:24.399Z,4.68
2023-07-14T21:44:51.214Z,4.80
2023-07-14T21:47:19.359Z,4.88
2023-07-14T21:49:46.105Z,5.38
2023-07-14T21:52:14.172Z,4.53
2023-07-14T21:54:40.782Z,5.55
2023-07-14T21:57:12.492Z,5.05
2023-07-14T21:59:39.692Z,5.05
2023-07-14T22:02:12.438Z,4.93
2023-07-14T22:04:39.009Z,5.78
2023-07-14T22:07:10.573Z,4.75
2023-07-14T22:12:05.269Z,4.72
2023-07-14T22:14:32.041Z,4.95
2023-07-14T22:16:58.584Z,4.82
2023-07-14T22:19:25.973Z,4.47
2023-07-14T22:21:52.483Z,4.60
2023-07-14T22:24:20.026Z,5.15
2023-07-14T22:26:46.874Z,5.10
2023-07-14T22:29:13.595Z,4.78
2023-07-14T22:31:41.025Z,5.05
2023-07-14T22:34:16.070Z,4.93
2023-07-14T22:36:42.819Z,4.78
2023-07-14T22:39:15.214Z,5.03
2023-07-14T22:41:43.013Z,4.40
2023-07-14T22:44:13.097Z,5.50
2023-07-14T22:46:39.704Z,4.40
2023-07-14T22:49:06.392Z,5.00
2023-07-14T22:51:35.273Z,4.68
2023-07-14T22:54:05.108Z,5.25
2023-07-14T22:56:33.053Z,4.50
2023-07-14T22:59:00.666Z,4.93
2023-07-14T23:01:36.587Z,4.13
2023-07-14T23:04:04.565Z,4.82
2023-07-14T23:06:31.417Z,5.25
2023-07-14T23:08:58.122Z,4.03
2023-07-14T23:11:37.321Z,4.90
2023-07-14T23:14:03.892Z,4.78
2023-07-14T23:16:30.896Z,4.93
2023-07-14T23:18:59.660Z,4.30
2023-07-14T23:21:34.086Z,4.50
2023-07-14T23:24:03.753Z,4.47
2023-07-14T23:26:31.099Z,4.25
2023-07-14T23:28:57.889Z,4.18
2023-07-14T23:31:27.509Z,4.18
2023-07-14T23:33:54.531Z,4.15
2023-07-14T23:36:23.023Z,4.32
2023-07-14T23:38:49.848Z,4.35
2023-07-14T23:41:25.582Z,4.32
2023-07-14T23:43:53.733Z,3.85
2023-07-14T23:46:24.179Z,4.15
2023-07-14T23:48:51.751Z,4.13
2023-07-14T23:51:28.931Z,4.05
2023-07-14T23:53:56.106Z,4.30
2023-07-14T23:56:22.908Z,3.80
2023-07-14T23:58:49.648Z,4.45
